Time;durP1;ratioP1;P1;durP2;ratioP2;P2;SDS_P1;SDS_P2;PMS_P1;PMS_P2;Temp;Humidity;BMP_temperature;BMP_pressure;BME280_temperature;BME280_humidity;BME280_pressure;Samples;Min_cycle;Max_cycle;Signal;HPM_P1;HPM_P2
2022/05/16 03:00:32;;;;;;;53.93;51.23;;;12.80;99.90;;;;;;6008308;23;20282;31
2022/05/16 03:02:58;;;;;;;69.10;65.60;;;12.90;99.90;;;;;;4916144;29;20238;-76
2022/05/16 03:05:23;;;;;;;70.40;66.90;;;12.90;99.90;;;;;;4919314;29;20242;-75
2022/05/16 03:07:49;;;;;;;75.40;71.43;;;13.00;99.90;;;;;;4928485;29;20552;-77
2022/05/16 03:10:15;;;;;;;74.90;71.30;;;13.00;99.90;;;;;;4918714;29;20187;-77
2022/05/16 03:12:45;;;;;;;82.57;78.50;;;13.10;99.90;;;;;;4911013;29;20675;-77
2022/05/16 03:15:14;;;;;;;51.80;48.67;;;13.10;99.90;;;;;;4906383;29;20182;-77
2022/05/16 03:17:40;;;;;;;46.47;43.80;;;13.10;99.90;;;;;;5003414;23;20279;-79
2022/05/16 03:20:08;;;;;;;62.53;59.33;;;13.10;99.90;;;;;;4976386;28;20555;-79
2022/05/16 03:22:34;;;;;;;63.13;59.87;;;13.20;99.90;;;;;;4965608;28;20181;-71
2022/05/16 03:25:02;;;;;;;61.63;58.57;;;13.20;99.90;;;;;;4954451;29;20181;-71
2022/05/16 03:27:28;;;;;;;40.80;38.60;;;13.20;99.90;;;;;;4952288;28;20201;-72
2022/05/16 03:29:55;;;;;;;36.07;34.13;;;13.20;99.90;;;;;;4953766;29;20236;-72
2022/05/16 03:32:21;;;;;;;51.83;48.97;;;13.10;99.90;;;;;;4951682;28;20184;-71
2022/05/16 03:34:50;;;;;;;77.17;72.70;;;13.20;99.90;;;;;;4953688;28;20208;-71
2022/05/16 03:37:17;;;;;;;51.03;48.40;;;13.40;99.90;;;;;;4952277;28;20221;-71
2022/05/16 03:42:30;;;;;;;18.43;17.43;;;13.70;99.90;;;;;;4953751;29;20185;-71
2022/05/16 03:44:56;;;;;;;16.77;15.60;;;13.70;99.90;;;;;;4953748;28;20528;-71
2022/05/16 03:47:21;;;;;;;17.77;16.67;;;13.80;99.90;;;;;;4953152;29;20217;-71
2022/05/16 03:49:47;;;;;;;20.73;19.40;;;13.80;99.90;;;;;;4953916;29;20182;-70
2022/05/16 03:52:14;;;;;;;31.83;30.03;;;13.80;99.90;;;;;;4946066;29;20182;-70
2022/05/16 03:54:40;;;;;;;33.17;31.53;;;13.70;99.90;;;;;;4952092;28;20273;-71
2022/05/16 03:57:06;;;;;;;32.80;30.90;;;13.70;99.90;;;;;;4953077;28;20591;-71
2022/05/16 03:59:32;;;;;;;30.97;28.73;;;13.60;99.90;;;;;;4953484;29;20303;-71
2022/05/16 04:01:58;;;;;;;27.27;25.57;;;13.60;99.90;;;;;;4952089;29;20276;-71
2022/05/16 04:04:25;;;;;;;26.07;24.67;;;13.50;99.90;;;;;;4953332;29;20193;-71
2022/05/16 04:06:51;;;;;;;24.63;23.03;;;13.50;99.90;;;;;;4952606;28;20363;-71
2022/05/16 04:09:17;;;;;;;27.50;25.73;;;13.50;99.90;;;;;;4953296;28;20206;-71
2022/05/16 04:11:43;;;;;;;25.87;24.03;;;13.60;99.90;;;;;;4953064;29;20205;-71
2022/05/16 04:14:09;;;;;;;25.60;24.10;;;13.60;99.90;;;;;;4951705;28;20178;-71
2022/05/16 04:16:37;;;;;;;23.37;22.13;;;13.60;99.90;;;;;;4953141;28;20217;-71
2022/05/16 04:19:06;;;;;;;28.70;27.20;;;13.70;99.90;;;;;;4952017;28;20623;-72
2022/05/16 04:21:32;;;;;;;31.73;30.07;;;13.70;99.90;;;;;;4952662;28;20244;-72
2022/05/16 04:23:58;;;;;;;30.47;28.87;;;13.80;99.90;;;;;;4953886;28;20658;-72
2022/05/16 04:26:24;;;;;;;31.30;29.60;;;13.90;99.90;;;;;;4953544;29;20299;-72
2022/05/16 04:28:49;;;;;;;29.23;27.63;;;14.00;99.90;;;;;;4954581;29;20185;-72
2022/05/16 04:31:15;;;;;;;27.30;25.70;;;14.10;99.90;;;;;;4951024;29;20249;-72
2022/05/16 04:33:42;;;;;;;32.53;30.73;;;14.20;99.90;;;;;;4952931;29;20630;-71
2022/05/16 04:36:08;;;;;;;29.80;28.30;;;14.20;99.90;;;;;;4933019;29;20265;-72
2022/05/16 04:38:34;;;;;;;29.20;27.50;;;14.30;99.90;;;;;;4930822;29;20669;-72
2022/05/16 04:43:44;;;;;;;25.27;23.87;;;14.40;99.90;;;;;;4935444;29;20189;-72
2022/05/16 04:46:09;;;;;;;18.40;17.03;;;14.40;99.90;;;;;;4938986;29;20202;-72
2022/05/16 04:48:35;;;;;;;23.00;21.80;;;14.40;99.90;;;;;;4939796;29;20197;-72
2022/05/16 04:51:01;;;;;;;13.10;11.90;;;14.50;99.90;;;;;;4940203;29;20182;-72
2022/05/16 04:53:27;;;;;;;14.47;13.67;;;14.60;99.90;;;;;;4938934;29;20182;-72
2022/05/16 04:55:54;;;;;;;7.33;6.63;;;14.70;99.90;;;;;;4939979;29;20551;-71
2022/05/16 04:58:21;;;;;;;7.77;7.27;;;14.80;99.90;;;;;;4940196;29;20222;-71
2022/05/16 05:00:47;;;;;;;16.03;15.03;;;14.90;99.90;;;;;;4941411;28;20737;-72
2022/05/16 05:03:13;;;;;;;21.20;19.67;;;15.00;99.90;;;;;;4939752;29;20190;-72
2022/05/16 05:05:41;;;;;;;27.90;25.87;;;15.00;99.90;;;;;;4955600;29;20181;-72
2022/05/16 05:08:07;;;;;;;36.03;34.13;;;15.10;99.90;;;;;;4957412;29;20182;-72
2022/05/16 05:16:14;;;;;;;33.37;30.80;;;15.40;99.90;;;;;;4958843;29;20290;-71
2022/05/16 05:18:40;;;;;;;33.97;31.90;;;15.50;99.90;;;;;;4958529;28;20318;-71
2022/05/16 05:21:07;;;;;;;33.37;31.10;;;15.60;99.90;;;;;;4957981;28;20213;-72
2022/05/16 05:23:34;;;;;;;36.57;33.80;;;15.70;99.90;;;;;;4959224;28;20568;-72
2022/05/16 05:26:01;;;;;;;13.07;12.27;;;15.80;99.90;;;;;;4958905;28;20201;-70
2022/05/16 05:28:27;;;;;;;6.53;6.13;;;15.90;99.90;;;;;;4957125;28;20189;-72
2022/05/16 05:30:53;;;;;;;11.93;5.90;;;16.00;99.90;;;;;;4957844;28;20193;-72
2022/05/16 05:33:18;;;;;;;6.80;6.27;;;16.30;99.90;;;;;;4958534;28;20669;-72
2022/05/16 05:35:44;;;;;;;9.93;9.27;;;16.70;99.90;;;;;;4957510;28;20200;-71
2022/05/16 05:38:10;;;;;;;14.83;13.83;;;16.90;99.90;;;;;;4957147;28;20296;-72
2022/05/16 05:40:39;;;;;;;8.10;7.50;;;17.10;99.90;;;;;;4959044;28;20621;-72
2022/05/16 05:43:06;;;;;;;10.00;9.40;;;17.10;99.90;;;;;;4948230;28;20186;-72
2022/05/16 05:45:34;;;;;;;8.10;7.40;;;17.20;99.90;;;;;;4936858;29;20643;-71
2022/05/16 05:48:01;;;;;;;8.33;7.63;;;17.20;99.90;;;;;;4936531;29;20210;-72
2022/05/16 05:50:27;;;;;;;8.60;6.07;;;17.20;99.90;;;;;;4938984;29;20182;-71
2022/05/16 05:52:53;;;;;;;6.57;6.03;;;17.20;99.90;;;;;;4940229;28;20209;-70
2022/05/16 05:55:20;;;;;;;8.37;7.80;;;17.30;99.90;;;;;;4937936;29;20182;-73
2022/05/16 05:57:45;;;;;;;8.53;7.60;;;17.30;99.90;;;;;;4955122;28;20213;-71
2022/05/16 06:00:13;;;;;;;20.57;19.27;;;17.30;99.90;;;;;;4969409;28;20591;-71
2022/05/16 06:02:40;;;;;;;16.03;15.13;;;17.40;99.90;;;;;;4975000;28;20269;-72
2022/05/16 06:05:08;;;;;;;16.67;15.60;;;17.30;99.90;;;;;;4976228;28;20184;-71
2022/05/16 06:07:34;;;;;;;20.10;19.10;;;17.20;99.90;;;;;;4974570;28;20760;-71
2022/05/16 06:09:59;;;;;;;9.10;8.40;;;17.20;99.90;;;;;;4974809;28;20227;-71
2022/05/16 06:12:25;;;;;;;19.83;18.50;;;17.20;99.90;;;;;;4974519;28;20188;-72
2022/05/16 06:14:51;;;;;;;22.83;21.23;;;17.20;99.90;;;;;;4974635;28;20181;-72
2022/05/16 06:17:17;;;;;;;15.73;14.33;;;17.20;99.90;;;;;;4974073;28;20221;-72
2022/05/16 06:19:44;;;;;;;16.73;15.67;;;17.10;99.90;;;;;;4974558;28;20207;-71
2022/05/16 06:22:10;;;;;;;11.97;11.17;;;17.10;99.90;;;;;;4950693;28;20185;-71
2022/05/16 06:27:20;;;;;;;23.63;22.30;;;17.20;99.90;;;;;;4954625;29;20202;-72
2022/05/16 06:29:46;;;;;;;8.00;7.30;;;17.10;99.90;;;;;;4955427;28;20181;-71
2022/05/16 06:32:12;;;;;;;8.40;7.67;;;17.10;99.90;;;;;;4953650;29;20186;-71
2022/05/16 06:34:38;;;;;;;8.67;7.87;;;17.00;99.90;;;;;;4954917;29;20186;-70
2022/05/16 06:37:04;;;;;;;8.40;7.90;;;17.00;99.90;;;;;;4954657;29;20251;-71
2022/05/16 06:39:29;;;;;;;7.20;6.60;;;17.00;99.90;;;;;;4955169;29;20721;-71
2022/05/16 06:41:55;;;;;;;10.07;7.77;;;17.00;99.90;;;;;;4951507;29;20436;-71
2022/05/16 06:44:21;;;;;;;8.03;7.53;;;17.00;99.90;;;;;;4944328;29;20212;-71
2022/05/16 06:46:48;;;;;;;7.37;6.67;;;17.00;99.90;;;;;;4953931;29;20290;-71
2022/05/16 06:49:13;;;;;;;7.60;7.00;;;17.00;99.90;;;;;;4954514;29;20193;-73
2022/05/16 06:51:40;;;;;;;8.30;7.50;;;17.10;99.90;;;;;;4954665;29;20194;-70
2022/05/16 06:54:07;;;;;;;8.03;7.33;;;17.30;99.90;;;;;;4954778;28;20839;-71
2022/05/16 06:56:33;;;;;;;9.37;6.70;;;17.50;99.90;;;;;;4953094;29;20205;-71
2022/05/16 06:58:58;;;;;;;8.80;8.10;;;17.70;99.90;;;;;;4953843;28;20587;-71
2022/05/16 07:01:24;;;;;;;9.53;8.73;;;17.90;99.90;;;;;;4953186;29;20182;-71
2022/05/16 07:03:50;;;;;;;26.47;24.97;;;18.40;99.90;;;;;;4954225;28;20812;-71
2022/05/16 07:06:16;;;;;;;16.40;15.23;;;18.70;99.90;;;;;;4953113;28;20205;-71
2022/05/16 07:08:42;;;;;;;10.20;9.25;;;19.40;99.90;;;;;;4953812;28;20567;-72
2022/05/16 07:11:09;;;;;;;9.27;6.13;;;20.30;99.90;;;;;;4945377;28;20250;-72
2022/05/16 07:13:35;;;;;;;23.77;22.25;;;21.00;99.90;;;;;;4938702;28;20229;-71
2022/05/16 07:16:01;;;;;;;21.60;20.38;;;21.30;99.90;;;;;;4959034;28;20289;-72
2022/05/16 07:18:28;;;;;;;12.23;11.13;;;21.20;99.90;;;;;;4953731;29;20206;-71
2022/05/16 07:20:55;;;;;;;13.23;12.18;;;21.10;99.90;;;;;;4954546;29;20185;-72
2022/05/16 07:23:21;;;;;;;11.35;10.57;;;20.80;99.90;;;;;;4954582;28;20182;-72
2022/05/16 07:28:32;;;;;;;17.55;16.45;;;20.40;99.90;;;;;;4955250;29;20182;-71
2022/05/16 07:30:57;;;;;;;18.33;17.10;;;20.40;99.90;;;;;;4954287;29;20285;-71
2022/05/16 07:33:23;;;;;;;22.08;20.77;;;20.60;99.90;;;;;;4953169;29;20551;-71
2022/05/16 07:35:50;;;;;;;20.95;19.73;;;20.90;99.90;;;;;;4956533;28;20272;-71
2022/05/16 07:38:17;;;;;;;17.15;16.15;;;21.10;99.90;;;;;;4956143;28;20217;-72
2022/05/16 07:40:42;;;;;;;15.88;14.77;;;21.20;99.90;;;;;;4954771;28;20173;-71
2022/05/16 07:43:08;;;;;;;17.80;16.40;;;21.20;99.90;;;;;;4953223;28;20182;-71
2022/05/16 07:45:34;;;;;;;14.93;13.90;;;21.30;99.90;;;;;;4953206;28;20185;-72
2022/05/16 07:48:03;;;;;;;22.05;20.50;;;21.50;99.90;;;;;;4947831;28;20210;-71
2022/05/16 07:50:30;;;;;;;10.10;9.40;;;21.80;99.90;;;;;;4937210;29;20233;-72
2022/05/16 07:52:58;;;;;;;8.23;5.75;;;22.30;99.90;;;;;;4934441;28;20194;-72
2022/05/16 07:55:25;;;;;;;9.63;8.82;;;22.60;99.90;;;;;;4948751;28;20185;-72
2022/05/16 07:57:51;;;;;;;17.33;15.85;;;23.00;99.90;;;;;;4951930;29;20221;-72
2022/05/16 08:00:19;;;;;;;13.35;12.27;;;23.20;99.90;;;;;;4953375;28;20526;-71
2022/05/16 08:02:45;;;;;;;12.43;11.45;;;23.50;99.90;;;;;;4951952;29;20575;-72
2022/05/16 08:05:14;;;;;;;14.02;13.15;;;23.60;99.90;;;;;;4953437;29;20178;-71
2022/05/16 08:10:31;;;;;;;7.70;7.00;;;23.50;99.90;;;;;;4953085;29;20197;-71
2022/05/16 08:13:03;;;;;;;16.13;15.23;;;23.40;99.90;;;;;;4953290;28;20189;-72
2022/05/16 08:15:30;;;;;;;6.50;6.07;;;23.30;99.90;;;;;;4952110;29;20190;-72
2022/05/16 08:17:57;;;;;;;7.95;7.43;;;23.40;99.90;;;;;;4952007;28;20221;-72
2022/05/16 08:20:24;;;;;;;7.07;6.60;;;23.50;99.90;;;;;;4952012;29;20654;-72
2022/05/16 08:22:51;;;;;;;8.38;6.25;;;23.60;99.90;;;;;;4953708;28;20233;-72
2022/05/16 08:25:17;;;;;;;7.47;6.97;;;23.60;99.90;;;;;;4953294;28;20190;-72
2022/05/16 08:27:43;;;;;;;9.13;8.38;;;23.50;99.90;;;;;;4952982;28;20236;-72
2022/05/16 08:30:10;;;;;;;9.73;9.02;;;23.80;99.90;;;;;;4953385;28;20672;-72
2022/05/16 08:32:36;;;;;;;9.95;9.35;;;23.90;99.90;;;;;;4953387;28;20177;-73
2022/05/16 08:35:07;;;;;;;11.05;10.25;;;24.10;99.90;;;;;;4952617;28;20651;-73
2022/05/16 08:40:20;;;;;;;19.95;18.80;;;24.50;99.90;;;;;;4952888;29;20193;-72
2022/05/16 08:43:15;;;;;;;34.67;32.50;;;24.80;99.90;;;;;;4951597;29;20201;-72
2022/05/16 08:46:02;;;;;;;45.03;42.60;;;25.20;99.90;;;;;;4942577;29;20266;-72
2022/05/16 08:48:44;;;;;;;43.60;41.38;;;25.30;99.90;;;;;;4952316;28;20189;-72
2022/05/16 08:51:18;;;;;;;60.92;57.35;;;25.40;99.90;;;;;;4951778;29;20220;-72
2022/05/16 08:53:49;;;;;;;66.20;62.40;;;25.30;99.90;;;;;;4952750;28;20184;-72
2022/05/16 08:56:23;;;;;;;26.70;24.83;;;24.70;99.90;;;;;;4952502;28;20201;-72
2022/05/16 08:59:19;;;;;;;15.70;14.20;;;24.30;99.90;;;;;;4952048;28;20218;-73
2022/05/16 09:01:55;;;;;;;10.23;9.32;;;23.70;99.90;;;;;;4952442;28;20843;-73
2022/05/16 09:04:43;;;;;;;30.85;28.75;;;23.40;99.90;;;;;;4953024;28;20637;-73
2022/05/16 09:07:28;;;;;;;30.33;28.33;;;23.20;99.90;;;;;;4952412;29;20205;-71
2022/05/16 09:10:12;;;;;;;18.15;16.85;;;23.30;99.90;;;;;;4951179;29;20567;-71
2022/05/16 09:12:43;;;;;;;7.55;7.03;;;23.40;99.90;;;;;;4951393;29;20721;-71
2022/05/16 09:15:26;;;;;;;7.10;6.40;;;23.40;99.90;;;;;;4952583;29;20186;-71
2022/05/16 09:18:07;;;;;;;7.75;6.50;;;23.50;99.90;;;;;;4988751;23;20743;-75
2022/05/16 09:21:12;;;;;;;20.25;19.00;;;24.10;99.90;;;;;;4991186;28;20355;-75
2022/05/16 09:23:52;;;;;;;11.02;10.32;;;24.70;99.90;;;;;;4952783;28;20240;-75
2022/05/16 09:26:30;;;;;;;16.45;15.18;;;25.40;99.90;;;;;;4974643;28;20300;-75
2022/05/16 09:29:19;;;;;;;39.97;37.75;;;26.10;99.90;;;;;;4973349;28;20246;-75
2022/05/16 09:31:48;;;;;;;60.35;57.03;;;26.30;99.90;;;;;;4977400;28;20231;-75
2022/05/16 09:34:15;;;;;;;60.67;57.65;;;26.60;99.90;;;;;;4979556;28;20173;-75
2022/05/16 09:36:45;;;;;;;70.10;66.32;;;27.00;99.90;;;;;;4977796;28;20232;-75
2022/05/16 09:39:14;;;;;;;39.92;37.75;;;27.10;99.90;;;;;;4978519;28;20221;-75
2022/05/16 09:41:46;;;;;;;12.50;11.60;;;27.50;99.90;;;;;;4972030;28;20581;-75
2022/05/16 09:44:24;;;;;;;21.55;20.10;;;28.20;99.80;;;;;;4986583;28;20222;-76
2022/05/16 09:46:52;;;;;;;26.73;25.25;;;28.30;98.20;;;;;;4996726;28;20258;-75
2022/05/16 09:49:18;;;;;;;35.45;33.28;;;28.90;97.40;;;;;;4996874;28;20229;-75
2022/05/16 09:51:52;;;;;;;30.42;28.77;;;28.60;96.30;;;;;;4996025;28;20198;-75
2022/05/16 09:54:31;;;;;;;14.50;13.48;;;28.70;97.00;;;;;;4997466;28;20269;-76
2022/05/16 09:57:02;;;;;;;16.90;15.80;;;28.40;95.80;;;;;;4997296;28;20239;-75
2022/05/16 09:59:48;;;;;;;23.52;22.10;;;27.90;96.10;;;;;;4996354;28;20192;-75
2022/05/16 10:02:34;;;;;;;40.85;38.55;;;27.40;97.00;;;;;;4997446;28;20186;-75
2022/05/16 10:05:29;;;;;;;38.53;36.38;;;27.30;98.70;;;;;;4997577;28;20223;-75
2022/05/16 10:08:00;;;;;;;36.58;34.58;;;27.50;97.60;;;;;;4994778;28;20227;-75
2022/05/16 10:10:36;;;;;;;23.90;22.45;;;27.70;98.30;;;;;;4995665;28;20255;-75
2022/05/16 10:13:03;;;;;;;37.50;35.35;;;27.70;96.40;;;;;;4996690;28;20239;-75
2022/05/16 10:15:31;;;;;;;34.33;32.08;;;27.60;96.00;;;;;;4995941;28;20212;-75
2022/05/16 10:17:59;;;;;;;25.55;23.75;;;28.10;96.10;;;;;;4969097;28;20218;-76
2022/05/16 10:20:35;;;;;;;20.15;18.55;;;28.20;95.00;;;;;;4957131;28;20182;-75
2022/05/16 10:23:05;;;;;;;21.10;19.98;;;28.10;95.30;;;;;;4963978;28;20181;-75
2022/05/16 10:25:43;;;;;;;14.02;13.13;;;28.00;95.20;;;;;;4975898;28;20711;-75
2022/05/16 10:28:14;;;;;;;10.18;9.18;;;28.40;94.20;;;;;;4974872;28;20204;-75
2022/05/16 10:33:29;;;;;;;15.00;14.15;;;29.70;90.80;;;;;;4979887;28;20272;-75
2022/05/16 10:36:05;;;;;;;9.52;8.75;;;29.90;89.70;;;;;;4980582;28;20180;-75
2022/05/16 10:38:33;;;;;;;15.13;13.88;;;30.00;86.80;;;;;;4968459;28;20213;-75
2022/05/16 10:41:02;;;;;;;10.88;10.02;;;29.60;89.30;;;;;;4982431;28;20260;-75
2022/05/16 10:43:46;;;;;;;6.70;6.20;;;30.00;89.10;;;;;;4976055;28;20185;-75
2022/05/16 10:46:19;;;;;;;7.32;6.85;;;29.90;86.50;;;;;;4977117;28;20192;-76
2022/05/16 10:48:52;;;;;;;8.23;7.72;;;29.30;89.70;;;;;;4985822;28;20653;-75
2022/05/16 10:51:52;;;;;;;14.55;12.93;;;29.20;88.00;;;;;;4980434;28;20252;-76
2022/05/16 10:54:24;;;;;;;12.80;12.00;;;29.10;89.00;;;;;;4976313;28;20660;-75
2022/05/16 10:57:06;;;;;;;15.57;14.52;;;29.00;90.30;;;;;;4974688;28;20211;-75
2022/05/16 10:59:47;;;;;;;8.35;7.72;;;28.50;91.10;;;;;;4976588;28;20541;-75
2022/05/16 11:02:21;;;;;;;13.45;12.43;;;27.70;92.70;;;;;;4975522;28;20593;-75
2022/05/16 11:05:22;;;;;;;32.20;29.77;;;27.00;94.80;;;;;;4974773;28;20298;-75
2022/05/16 11:08:04;;;;;;;33.67;31.52;;;26.20;96.40;;;;;;4895175;29;20206;-75
2022/05/16 11:10:39;;;;;;;9.65;8.85;;;25.40;98.40;;;;;;4966695;28;20193;-75
2022/05/16 11:13:27;;;;;;;15.00;13.75;;;25.10;99.90;;;;;;4973943;28;20189;-75
2022/05/16 11:15:52;;;;;;;51.85;48.53;;;24.90;99.90;;;;;;4974084;28;20189;-75
2022/05/16 11:18:57;;;;;;;80.32;75.95;;;24.90;99.90;;;;;;4974413;28;20296;-75
2022/05/16 11:21:43;;;;;;;76.95;72.82;;;24.70;99.90;;;;;;4974724;28;20660;-75
2022/05/16 11:24:31;;;;;;;15.57;14.38;;;24.40;99.90;;;;;;4972464;28;20192;-75
2022/05/16 11:27:41;;;;;;;12.80;11.75;;;24.10;99.90;;;;;;4973173;28;20232;-75
2022/05/16 11:30:15;;;;;;;12.07;11.07;;;23.90;99.90;;;;;;4974884;28;20177;-75
2022/05/16 11:33:07;;;;;;;14.77;13.63;;;23.70;99.90;;;;;;4974548;28;20624;-75
2022/05/16 11:35:46;;;;;;;18.55;17.38;;;23.20;99.90;;;;;;4967798;28;20318;-74
2022/05/16 11:38:24;;;;;;;16.33;14.82;;;22.80;99.90;;;;;;4972141;28;20220;-74
2022/05/16 11:41:15;;;;;;;10.05;9.02;;;22.40;99.90;;;;;;4973096;28;20192;-74
2022/05/16 11:43:46;;;;;;;223.88;209.00;;;22.00;99.90;;;;;;4972053;28;20653;-76
2022/05/16 11:46:23;;;;;;;39.17;36.35;;;20.80;99.90;;;;;;4972701;28;20498;-77
2022/05/16 11:48:59;;;;;;;94.97;88.97;;;19.90;99.90;;;;;;4971331;28;20180;-75
2022/05/16 11:51:44;;;;;;;57.20;53.50;;;19.30;99.90;;;;;;4971909;28;20195;-77
2022/05/16 11:54:14;;;;;;;57.50;53.20;;;18.90;99.90;;;;;;4970614;28;20649;-75
2022/05/16 12:00:31;;;;;;;95.80;89.93;;;18.40;99.90;;;;;;4972889;28;20216;-75
2022/05/16 12:03:08;;;;;;;46.23;43.10;;;18.30;99.90;;;;;;4972828;28;20189;-76
2022/05/16 12:05:38;;;;;;;213.20;200.67;;;18.30;99.90;;;;;;4971690;28;20279;-76
2022/05/16 12:08:43;;;;;;;163.60;154.43;;;18.40;99.90;;;;;;4972124;28;20645;-78
2022/05/16 12:11:16;;;;;;;48.40;45.27;;;18.40;99.90;;;;;;4971879;28;20181;-75
2022/05/16 12:14:22;;;;;;;124.70;117.73;;;18.60;99.90;;;;;;4972580;28;20181;-76
2022/05/16 12:17:19;;;;;;;111.23;105.17;;;18.70;99.90;;;;;;4971274;28;20216;-76
2022/05/16 12:19:51;;;;;;;170.23;161.17;;;18.80;99.90;;;;;;4973109;28;20224;-75
2022/05/16 12:22:32;;;;;;;98.10;92.13;;;19.00;99.90;;;;;;4958504;28;20193;-76
2022/05/16 12:25:20;;;;;;;123.60;117.23;;;19.20;99.90;;;;;;4974416;28;20185;-76
2022/05/16 12:27:47;;;;;;;137.50;130.23;;;19.30;99.90;;;;;;4960014;28;20294;-75
2022/05/16 12:30:16;;;;;;;137.40;129.80;;;19.30;99.90;;;;;;4965588;29;20296;-75
2022/05/16 12:32:53;;;;;;;260.37;246.00;;;19.30;99.90;;;;;;4953809;29;20186;-75
2022/05/16 12:35:28;;;;;;;201.27;190.43;;;19.30;99.90;;;;;;4953045;29;20192;-76
2022/05/16 12:37:54;;;;;;;152.97;144.33;;;19.20;99.90;;;;;;4951704;28;20252;-76
2022/05/16 12:40:41;;;;;;;104.40;97.97;;;19.00;99.90;;;;;;4953091;28;20184;-76
2022/05/16 12:43:26;;;;;;;103.23;96.87;;;18.80;99.90;;;;;;4952983;29;20650;-76
2022/05/16 12:46:09;;;;;;;118.67;111.60;;;18.80;99.90;;;;;;4952914;29;20178;-75
2022/05/16 12:49:04;;;;;;;109.37;103.00;;;18.70;99.90;;;;;;4951338;29;20185;-76
2022/05/16 12:51:43;;;;;;;248.07;232.73;;;18.70;99.90;;;;;;4938431;28;20689;-75
2022/05/16 12:54:28;;;;;;;232.27;219.37;;;18.70;99.90;;;;;;4952853;29;20194;-75
2022/05/16 12:56:56;;;;;;;210.57;198.37;;;18.50;99.90;;;;;;4952363;28;20217;-76
2022/05/16 12:59:36;;;;;;;112.73;106.03;;;18.40;99.90;;;;;;4951524;29;20567;-76
2022/05/16 13:02:21;;;;;;;42.57;39.10;;;18.30;99.90;;;;;;4951545;29;20313;-76
2022/05/16 13:04:59;;;;;;;35.13;32.97;;;18.20;99.90;;;;;;4952035;28;20653;-76
2022/05/16 13:07:32;;;;;;;45.87;42.43;;;18.20;99.90;;;;;;4956002;28;20205;-76
2022/05/16 13:10:29;;;;;;;55.23;51.60;;;18.10;99.90;;;;;;4956490;28;20209;-76
2022/05/16 13:13:28;;;;;;;55.93;52.27;;;18.20;99.90;;;;;;4955192;29;20662;-76
2022/05/16 13:16:24;;;;;;;46.03;43.13;;;18.50;99.90;;;;;;4956531;28;20189;-75
2022/05/16 13:18:58;;;;;;;71.10;66.63;;;18.60;99.90;;;;;;4950370;28;20284;-75
2022/05/16 13:21:38;;;;;;;48.27;45.00;;;18.50;99.90;;;;;;4956378;28;20189;-75
2022/05/16 13:24:15;;;;;;;36.53;34.23;;;18.60;99.90;;;;;;4956761;28;20209;-75
2022/05/16 13:29:35;;;;;;;30.60;28.77;;;19.20;99.90;;;;;;4959666;28;20182;-75
2022/05/16 13:32:30;;;;;;;19.98;18.92;;;19.80;99.90;;;;;;4955613;29;20213;-76
2022/05/16 13:35:00;;;;;;;16.75;15.73;;;20.20;99.90;;;;;;4967175;28;20195;-76
2022/05/16 13:37:29;;;;;;;96.60;91.70;;;20.50;99.90;;;;;;4975525;28;20696;-75
2022/05/16 13:40:06;;;;;;;158.25;150.38;;;20.90;99.90;;;;;;4976092;28;20668;-75
2022/05/16 13:42:36;;;;;;;25.27;23.75;;;21.20;99.90;;;;;;4975589;28;20180;-75
2022/05/16 13:45:01;;;;;;;40.70;38.35;;;21.90;99.90;;;;;;4976134;28;20205;-76
2022/05/16 13:47:31;;;;;;;40.25;38.05;;;22.30;99.90;;;;;;4976051;28;20229;-76
2022/05/16 13:49:57;;;;;;;9.40;8.80;;;23.00;99.90;;;;;;4976692;28;20177;-76
2022/05/16 13:52:25;;;;;;;7.43;6.00;;;23.60;99.90;;;;;;4977357;28;20613;-76
2022/05/16 13:54:54;;;;;;;8.77;8.18;;;24.10;99.90;;;;;;4975874;28;20185;-76
2022/05/16 13:57:25;;;;;;;8.20;7.50;;;24.80;99.90;;;;;;4975272;28;20233;-75
2022/05/16 14:00:09;;;;;;;77.70;73.63;;;24.80;99.90;;;;;;4956347;28;20562;-75
2022/05/16 14:02:36;;;;;;;57.10;53.78;;;24.30;99.90;;;;;;4956337;28;20233;-75
2022/05/16 14:05:37;;;;;;;97.38;92.57;;;24.20;99.90;;;;;;4957098;28;20186;-76
2022/05/16 14:08:08;;;;;;;141.35;134.20;;;24.70;99.90;;;;;;4961598;28;20213;-74
2022/05/16 14:10:37;;;;;;;49.63;47.05;;;24.90;99.90;;;;;;4958943;28;20189;-76
2022/05/16 14:13:06;;;;;;;32.90;30.98;;;25.10;99.90;;;;;;4954946;28;20193;-76
2022/05/16 14:15:40;;;;;;;9.70;8.65;;;25.30;99.90;;;;;;4956846;28;20188;-76
2022/05/16 14:18:10;;;;;;;18.67;17.48;;;25.60;99.90;;;;;;4956084;28;20578;-76
2022/05/16 14:20:53;;;;;;;10.25;9.45;;;26.40;99.90;;;;;;4955441;29;20196;-76
2022/05/16 14:23:22;;;;;;;10.63;9.52;;;27.00;99.90;;;;;;4956888;28;20185;-76
2022/05/16 14:25:50;;;;;;;13.57;12.77;;;28.90;99.90;;;;;;4957779;28;20276;-75
2022/05/16 14:28:18;;;;;;;26.58;25.00;;;30.30;99.90;;;;;;4957364;28;20292;-76
2022/05/16 14:31:22;;;;;;;17.58;16.17;;;31.10;99.10;;;;;;4957821;29;20186;-75
2022/05/16 14:34:00;;;;;;;26.50;24.90;;;31.30;95.90;;;;;;4945041;28;20241;-75
2022/05/16 14:36:33;;;;;;;6.95;6.45;;;31.50;97.60;;;;;;4955775;28;20585;-75
2022/05/16 14:39:23;;;;;;;11.10;10.23;;;31.90;92.20;;;;;;4955677;28;20225;-75
2022/05/16 14:41:51;;;;;;;64.95;61.53;;;31.30;90.70;;;;;;4956521;28;20182;-75
2022/05/16 14:44:21;;;;;;;33.90;31.95;;;30.00;94.80;;;;;;4957320;28;20220;-75
2022/05/16 14:46:58;;;;;;;33.90;32.28;;;29.30;95.20;;;;;;4957010;29;20198;-75
2022/05/16 14:49:24;;;;;;;25.23;23.73;;;29.90;97.30;;;;;;4956342;29;20213;-75
2022/05/16 14:51:49;;;;;;;8.73;5.57;;;30.70;94.80;;;;;;4956579;28;20646;-75
2022/05/16 14:54:39;;;;;;;5.72;4.93;;;31.80;91.80;;;;;;4957162;29;20189;-75
2022/05/16 14:57:06;;;;;;;16.75;15.25;;;31.60;90.10;;;;;;4956484;28;20490;-75
2022/05/16 14:59:31;;;;;;;22.42;20.88;;;30.40;93.40;;;;;;4956008;28;20213;-76
2022/05/16 15:04:42;;;;;;;7.97;7.18;;;31.30;93.10;;;;;;4956904;29;20634;-74
2022/05/16 15:07:09;;;;;;;7.60;5.95;;;31.70;90.30;;;;;;4955373;28;20201;-75
2022/05/16 15:09:36;;;;;;;7.90;7.28;;;31.60;89.20;;;;;;4956081;28;20558;-75
2022/05/16 15:12:08;;;;;;;26.35;24.55;;;31.00;90.60;;;;;;4956224;28;20182;-76
2022/05/16 15:14:36;;;;;;;34.17;31.80;;;30.10;92.70;;;;;;4956141;29;20188;-75
2022/05/16 15:17:06;;;;;;;26.08;24.10;;;30.40;91.80;;;;;;4975020;23;20733;-73
2022/05/16 15:19:33;;;;;;;28.95;26.92;;;30.60;90.50;;;;;;4954545;28;20535;-72
2022/05/16 15:21:59;;;;;;;19.50;17.95;;;31.30;90.10;;;;;;4954441;28;20189;-73
2022/05/16 15:24:35;;;;;;;13.90;12.57;;;31.50;88.10;;;;;;4953344;29;20182;-73
2022/05/16 15:27:02;;;;;;;9.70;8.88;;;31.30;86.10;;;;;;4953931;29;20209;-73
2022/05/16 15:29:28;;;;;;;16.60;15.60;;;31.00;86.60;;;;;;4952687;28;20178;-74
2022/05/16 15:31:54;;;;;;;32.65;30.75;;;30.70;89.00;;;;;;4952929;28;20350;-73
2022/05/16 15:34:20;;;;;;;16.35;14.57;;;30.60;89.80;;;;;;4952853;29;20626;-74
2022/05/16 15:36:46;;;;;;;14.93;13.98;;;31.00;89.20;;;;;;4953722;29;20208;-73
2022/05/16 15:39:21;;;;;;;6.95;6.25;;;31.20;86.20;;;;;;4953956;28;20232;-73
2022/05/16 15:41:47;;;;;;;9.25;8.73;;;31.40;85.80;;;;;;4952910;28;20598;-74
2022/05/16 15:44:14;;;;;;;6.72;6.22;;;31.10;84.50;;;;;;4952999;28;20261;-74
2022/05/16 15:46:41;;;;;;;13.63;12.57;;;30.90;85.00;;;;;;4952793;28;20205;-72
2022/05/16 15:49:08;;;;;;;33.13;31.15;;;29.90;88.10;;;;;;4954231;28;20186;-74
2022/05/16 15:51:34;;;;;;;41.35;38.92;;;30.30;88.40;;;;;;4952831;29;20561;-75
2022/05/16 15:54:05;;;;;;;32.83;30.83;;;30.20;87.50;;;;;;4952848;28;20615;-72
2022/05/16 15:56:32;;;;;;;44.63;42.22;;;29.80;86.80;;;;;;4954646;28;20196;-74
2022/05/16 15:58:58;;;;;;;37.15;35.05;;;29.60;89.60;;;;;;4953082;28;20205;-73
2022/05/16 16:01:25;;;;;;;53.13;50.15;;;29.10;90.20;;;;;;4953218;28;20229;-73
2022/05/16 16:09:20;;;;;;;32.40;30.25;;;25.30;97.40;;;;;;4953605;29;20200;-75
2022/05/16 16:11:47;;;;;;;7.22;6.55;;;24.40;99.90;;;;;;4952567;29;20181;-72
2022/05/16 16:14:14;;;;;;;11.93;11.02;;;23.90;99.90;;;;;;4952523;29;20658;-73
2022/05/16 16:16:45;;;;;;;7.65;6.75;;;23.50;99.90;;;;;;4952221;28;20943;-72
2022/05/16 16:19:24;;;;;;;8.85;8.15;;;23.20;99.90;;;;;;4953203;28;20213;-73
2022/05/16 16:21:51;;;;;;;12.05;11.07;;;23.30;99.90;;;;;;4953281;28;20186;-72
2022/05/16 16:24:17;;;;;;;10.77;9.95;;;24.30;99.90;;;;;;4946799;28;20515;-74
2022/05/16 16:26:43;;;;;;;12.85;11.75;;;25.20;99.90;;;;;;4948420;28;20292;-73
2022/05/16 16:29:10;;;;;;;8.65;7.68;;;25.80;99.90;;;;;;4953130;28;20217;-73
2022/05/16 16:31:38;;;;;;;6.63;6.15;;;26.20;99.90;;;;;;4953056;28;20657;-75
2022/05/16 16:34:04;;;;;;;12.13;11.15;;;26.30;99.90;;;;;;4940604;28;20186;-74